.
WxDataArchive / Data Records for 2008-02-25
2008-02-24 February 2008 2008-02-26

Data Records for Monday, 25 February 2008

Time	Temp	Chill	HIndex	Humid	Dewpt	 Wind 	HiWind	WindDir	Rain 	Barom 
-----	----	-----	------	-----	-----	------	------	-------	-----	----- 
00:00	30.3	30.3	30.3	70	21.7	3	10	248	0.00	30.008 
00:05	30.3	30.3	30.3	71	22.0	2	4	248	0.00	30.010 
00:10	30.1	30.1	30.1	71	21.9	1	5	270	0.00	30.009 
00:15	30.1	30.1	30.1	72	22.2	1	4	248	0.00	30.005 
00:20	30.1	30.1	30.1	72	22.2	2	6	248	0.00	30.005 
00:25	30.1	30.1	30.1	72	22.2	2	9	248	0.00	30.003 
00:30	30.0	30.0	30.0	71	21.8	3	10	248	0.00	29.999 
00:35	30.0	30.0	30.0	72	22.1	2	7	270	0.00	29.998 
00:40	29.8	29.8	29.8	71	21.6	3	6	270	0.00	29.998 
00:45	29.8	29.8	29.8	72	21.9	1	5	248	0.00	29.999 
00:50	29.8	29.8	29.8	72	21.9	2	6	248	0.00	29.998 
00:55	29.8	29.8	29.8	72	21.9	3	9	248	0.00	29.998 
01:00	30.0	30.0	30.0	72	22.1	3	11	248	0.00	29.999 
01:05	30.0	30.0	30.0	72	22.1	3	7	270	0.00	29.996 
01:10	30.0	30.0	30.0	73	22.4	2	6	270	0.00	29.994 
01:15	29.8	29.8	29.8	73	22.2	3	9	248	0.00	29.994 
01:20	29.8	29.8	29.8	73	22.2	3	6	248	0.00	29.995 
01:25	29.8	29.8	29.8	73	22.2	2	7	248	0.00	29.996 
01:30	29.8	29.8	29.8	73	22.2	2	6	248	0.00	29.993 
01:35	29.8	29.8	29.8	74	22.5	1	4	248	0.00	29.990 
01:40	29.7	29.7	29.7	74	22.4	1	5	248	0.00	29.983 
01:45	29.7	29.7	29.7	74	22.4	2	6	248	0.00	29.981 
01:50	29.7	29.7	29.7	74	22.4	3	7	248	0.00	29.981 
01:55	29.7	29.7	29.7	75	22.8	2	8	248	0.01	29.981 
02:00	29.7	29.7	29.7	75	22.8	1	4	248	0.00	29.983 
02:05	29.7	29.7	29.7	76	23.1	2	5	248	0.00	29.986 
02:10	29.7	29.7	29.7	76	23.1	2	7	248	0.00	29.984 
02:15	29.8	29.8	29.8	76	23.2	3	7	248	0.00	29.987 
02:20	29.8	25.5	29.8	77	23.5	4	7	248	0.00	29.983 
02:25	29.8	25.5	29.8	77	23.5	4	8	248	0.00	29.982 
02:30	29.8	29.8	29.8	77	23.5	3	6	270	0.00	29.983 
02:35	29.8	29.8	29.8	77	23.5	3	6	248	0.00	29.981 
02:40	29.8	29.8	29.8	77	23.5	2	7	248	0.00	29.981 
02:45	29.8	29.8	29.8	78	23.8	2	7	248	0.00	29.982 
02:50	29.8	29.8	29.8	78	23.8	2	5	248	0.00	29.984 
02:55	29.8	29.8	29.8	78	23.8	2	5	248	0.00	29.983 
03:00	29.8	29.8	29.8	78	23.8	1	3	248	0.00	29.980 
03:05	29.8	29.8	29.8	78	23.8	2	6	248	0.00	29.980 
03:10	29.8	29.8	29.8	78	23.8	1	4	248	0.00	29.980 
03:15	29.8	29.8	29.8	78	23.8	1	2	270	0.00	29.978 
03:20	29.8	29.8	29.8	78	23.8	2	6	248	0.00	29.976 
03:25	30.0	30.0	30.0	78	24.0	2	5	248	0.00	29.978 
03:30	30.0	30.0	30.0	78	24.0	3	8	248	0.00	29.974 
03:35	30.0	30.0	30.0	78	24.0	1	7	248	0.00	29.971 
03:40	30.0	30.0	30.0	78	24.0	2	5	248	0.00	29.966 
03:45	30.1	30.1	30.1	78	24.1	3	7	248	0.00	29.967 
03:50	30.1	30.1	30.1	78	24.1	2	6	248	0.00	29.964 
03:55	30.1	30.1	30.1	78	24.1	2	6	248	0.00	29.963 
04:00	30.1	30.1	30.1	78	24.1	2	5	248	0.00	29.964 
04:05	30.1	30.1	30.1	78	24.1	1	4	270	0.00	29.963 
04:10	30.1	30.1	30.1	78	24.1	1	4	248	0.00	29.960 
04:15	30.1	30.1	30.1	78	24.1	0	2	248	0.00	29.955 
04:20	30.1	30.1	30.1	78	24.1	1	3	248	0.00	29.955 
04:25	30.1	30.1	30.1	78	24.1	0	2	270	0.00	29.952 
04:30	30.1	30.1	30.1	79	24.4	1	6	248	0.00	29.952 
04:35	30.1	30.1	30.1	79	24.4	0	2	248	0.00	29.953 
04:40	30.1	30.1	30.1	79	24.4	1	5	248	0.00	29.952 
04:45	30.1	30.1	30.1	79	24.4	2	5	248	0.00	29.950 
04:50	30.1	30.1	30.1	79	24.4	1	5	248	0.00	29.948 
04:55	30.3	30.3	30.3	79	24.6	2	5	248	0.00	29.946 
05:00	30.3	30.3	30.3	79	24.6	1	6	248	0.00	29.944 
05:05	30.3	30.3	30.3	78	24.3	1	6	248	0.00	29.946 
05:10	30.3	30.3	30.3	78	24.3	1	4	248	0.00	29.946 
05:15	30.3	30.3	30.3	79	24.6	1	4	248	0.00	29.948 
05:20	30.3	30.3	30.3	79	24.6	2	7	248	0.00	29.951 
05:25	30.3	30.3	30.3	78	24.3	2	7	248	0.00	29.949 
05:30	30.3	30.3	30.3	79	24.6	1	3	248	0.00	29.950 
05:35	30.3	30.3	30.3	79	24.6	2	6	248	0.00	29.950 
05:40	30.4	30.4	30.4	79	24.7	1	3	248	0.00	29.951 
05:45	30.4	30.4	30.4	79	24.7	0	3	248	0.00	29.949 
05:50	30.4	30.4	30.4	79	24.7	2	7	248	0.00	29.949 
05:55	30.3	30.3	30.3	79	24.6	1	5	248	0.00	29.949 
06:00	30.4	30.4	30.4	79	24.7	2	6	248	0.00	29.948 
06:05	30.3	30.3	30.3	79	24.6	2	4	248	0.00	29.950 
06:10	30.3	30.3	30.3	79	24.6	1	3	225	0.00	29.947 
06:15	30.3	30.3	30.3	79	24.6	2	6	248	0.00	29.948 
06:20	30.3	30.3	30.3	79	24.6	2	7	248	0.00	29.950 
06:25	30.3	30.3	30.3	79	24.6	1	5	248	0.00	29.948 
06:30	30.3	30.3	30.3	79	24.6	3	7	248	0.00	29.952 
06:35	30.3	30.3	30.3	79	24.6	2	6	248	0.00	29.951 
06:40	30.3	30.3	30.3	79	24.6	0	2	248	0.00	29.948 
06:45	30.3	30.3	30.3	80	24.9	0	3	248	0.00	29.941 
06:50	30.3	30.3	30.3	80	24.9	2	5	248	0.00	29.941 
06:55	30.1	30.1	30.1	80	24.7	1	5	248	0.00	29.939 
07:00	30.1	30.1	30.1	80	24.7	2	5	248	0.00	29.939 
07:05	30.1	30.1	30.1	80	24.7	2	5	248	0.00	29.936 
07:10	30.1	30.1	30.1	80	24.7	1	6	248	0.00	29.931 
07:15	30.1	30.1	30.1	80	24.7	1	4	248	0.00	29.932 
07:20	30.1	30.1	30.1	80	24.7	1	3	248	0.00	29.933 
07:25	30.1	30.1	30.1	81	25.0	1	4	248	0.00	29.935 
07:30	30.1	30.1	30.1	81	25.0	0	3	248	0.00	29.933 
07:35	30.1	30.1	30.1	81	25.0	1	5	248	0.00	29.933 
07:40	30.1	30.1	30.1	81	25.0	1	3	248	0.00	29.933 
07:45	30.1	30.1	30.1	81	25.0	2	6	248	0.00	29.936 
07:50	30.1	30.1	30.1	81	25.0	2	6	248	0.00	29.937 
07:55	30.1	30.1	30.1	81	25.0	1	3	248	0.00	29.939 
08:00	30.1	30.1	30.1	81	25.0	2	5	248	0.00	29.944 
08:05	30.1	30.1	30.1	81	25.0	2	7	248	0.00	29.946 
08:10	30.1	30.1	30.1	81	25.0	2	5	248	0.00	29.949 
08:15	30.1	30.1	30.1	81	25.0	1	4	248	0.00	29.950 
08:20	30.1	30.1	30.1	81	25.0	2	6	248	0.00	29.953 
08:25	30.1	30.1	30.1	81	25.0	3	7	248	0.00	29.950 
08:30	30.1	30.1	30.1	81	25.0	2	10	248	0.00	29.952 
08:35	30.1	30.1	30.1	81	25.0	2	10	225	0.00	29.952 
08:40	30.1	30.1	30.1	81	25.0	3	7	225	0.00	29.947 
08:45	30.1	30.1	30.1	81	25.0	3	8	248	0.00	29.947 
08:50	30.1	30.1	30.1	81	25.0	2	5	248	0.00	29.944 
08:55	30.3	30.3	30.3	81	25.2	1	4	248	0.00	29.944 
09:00	30.3	30.3	30.3	81	25.2	2	5	248	0.00	29.940 
09:05	30.3	30.3	30.3	81	25.2	3	11	248	0.00	29.942 
09:10	30.3	30.3	30.3	81	25.2	3	9	248	0.00	29.946 
09:15	30.3	26.1	30.3	81	25.2	4	9	248	0.00	29.949 
09:20	30.3	30.3	30.3	81	25.2	3	10	248	0.00	29.951 
09:25	30.4	30.4	30.4	81	25.3	3	9	248	0.00	29.952 
09:30	30.4	26.2	30.4	81	25.3	4	9	248	0.00	29.951 
09:35	30.4	30.4	30.4	81	25.3	3	8	248	0.00	29.951 
09:40	30.6	30.6	30.6	81	25.5	3	9	248	0.00	29.952 
09:45	30.7	30.7	30.7	81	25.6	3	5	248	0.00	29.953 
09:50	30.7	26.6	30.7	81	25.6	4	10	248	0.00	29.954 
09:55	30.7	30.7	30.7	81	25.6	3	7	270	0.00	29.956 
10:00	30.7	30.7	30.7	81	25.6	3	7	248	0.00	29.954 
10:05	30.7	26.6	30.7	81	25.6	4	10	248	0.00	29.953 
10:10	30.7	30.7	30.7	81	25.6	3	7	248	0.00	29.950 
10:15	30.9	30.9	30.9	81	25.8	2	6	248	0.00	29.948 
10:20	30.9	30.9	30.9	81	25.8	2	5	248	0.00	29.945 
10:25	31.0	31.0	31.0	81	25.9	2	5	248	0.00	29.943 
10:30	31.0	31.0	31.0	81	25.9	2	10	248	0.00	29.941 
10:35	31.2	31.2	31.2	81	26.1	1	3	270	0.00	29.940 
10:40	31.3	31.3	31.3	81	26.2	3	7	248	0.00	29.938 
10:45	31.2	31.2	31.2	81	26.1	3	7	248	0.00	29.939 
10:50	31.2	31.2	31.2	81	26.1	3	9	248	0.00	29.939 
10:55	31.3	31.3	31.3	81	26.2	2	7	248	0.00	29.939 
11:00	31.3	31.3	31.3	81	26.2	2	6	248	0.00	29.938 
11:05	31.3	31.3	31.3	81	26.2	3	9	248	0.00	29.939 
11:10	31.5	27.5	31.5	81	26.4	4	9	248	0.00	29.941 
11:15	31.5	31.5	31.5	81	26.4	3	7	248	0.00	29.938 
11:20	31.6	31.6	31.6	81	26.5	3	9	270	0.00	29.935 
11:25	31.6	31.6	31.6	80	26.2	3	6	270	0.00	29.929 
11:30	31.8	31.8	31.8	80	26.3	3	8	225	0.00	29.928 
11:35	31.8	31.8	31.8	80	26.3	3	7	248	0.00	29.929 
11:40	31.9	31.9	31.9	80	26.4	2	6	225	0.00	29.925 
11:45	31.9	31.9	31.9	80	26.4	3	7	248	0.00	29.923 
11:50	32.1	32.1	32.1	80	26.6	3	10	248	0.00	29.923 
11:55	32.1	32.1	32.1	80	26.6	3	10	248	0.00	29.925 
12:00	32.2	32.2	32.2	79	26.4	3	7	248	0.00	29.926 
12:05	32.2	32.2	32.2	80	26.7	3	7	248	0.00	29.925 
12:10	32.2	32.2	32.2	80	26.7	3	9	248	0.00	29.928 
12:15	32.4	32.4	32.4	80	26.9	3	7	248	0.00	29.928 
12:20	32.5	32.5	32.5	80	27.0	2	5	248	0.00	29.921 
12:25	32.7	32.7	32.7	79	26.9	2	5	248	0.00	29.919 
12:30	32.7	32.7	32.7	79	26.9	3	7	248	0.00	29.918 
12:35	32.8	32.8	32.8	79	27.0	1	4	248	0.00	29.913 
12:40	33.1	33.1	33.1	78	27.0	2	5	248	0.00	29.910 
12:45	33.1	33.1	33.1	78	27.0	2	7	248	0.00	29.907 
12:50	33.1	33.1	33.1	78	27.0	2	5	248	0.00	29.905 
12:55	33.2	33.2	33.2	78	27.1	1	3	248	0.00	29.903 
13:00	33.2	33.2	33.2	77	26.8	2	6	248	0.00	29.897 
13:05	33.2	33.2	33.2	78	27.1	2	7	248	0.00	29.894 
13:10	33.2	33.2	33.2	77	26.8	2	5	248	0.00	29.893 
13:15	33.2	33.2	33.2	78	27.1	3	7	248	0.00	29.890 
13:20	33.1	33.1	33.1	78	27.0	2	6	248	0.00	29.889 
13:25	33.1	33.1	33.1	78	27.0	2	6	248	0.00	29.888 
13:30	33.2	33.2	33.2	78	27.1	2	6	248	0.00	29.885 
13:35	33.2	33.2	33.2	78	27.1	3	7	248	0.00	29.881 
13:40	33.2	33.2	33.2	78	27.1	3	6	248	0.00	29.876 
13:45	33.4	33.4	33.4	78	27.3	2	4	248	0.00	29.874 
13:50	33.4	33.4	33.4	78	27.3	1	5	248	0.00	29.873 
13:55	33.5	33.5	33.5	79	27.7	1	3	248	0.00	29.870 
14:00	33.4	33.4	33.4	79	27.6	1	6	225	0.00	29.872 
14:05	33.4	33.4	33.4	79	27.6	2	7	248	0.00	29.872 
14:10	33.2	33.2	33.2	79	27.4	2	6	248	0.00	29.873 
14:15	33.2	33.2	33.2	80	27.7	2	6	248	0.00	29.871 
14:20	33.2	33.2	33.2	80	27.7	2	5	270	0.00	29.869 
14:25	33.2	33.2	33.2	80	27.7	2	5	248	0.00	29.870 
14:30	33.4	33.4	33.4	80	27.9	2	4	248	0.00	29.868 
14:35	33.4	33.4	33.4	80	27.9	1	4	248	0.00	29.868 
14:40	33.4	33.4	33.4	80	27.9	2	5	248	0.00	29.860 
14:45	33.5	33.5	33.5	80	28.0	1	3	270	0.00	29.860 
14:50	33.7	33.7	33.7	79	27.9	3	7	248	0.00	29.857 
14:55	33.8	33.8	33.8	79	28.0	2	7	248	0.00	29.857 
15:00	34.0	34.0	34.0	79	28.2	2	4	248	0.00	29.857 
15:05	33.8	33.8	33.8	78	27.7	3	7	248	0.00	29.857 
15:10	33.7	33.7	33.7	78	27.6	3	6	248	0.00	29.860 
15:15	33.7	33.7	33.7	79	27.9	2	7	248	0.00	29.860 
15:20	33.5	33.5	33.5	79	27.7	2	6	248	0.00	29.858 
15:25	33.5	33.5	33.5	79	27.7	1	4	248	0.00	29.856 
15:30	33.5	33.5	33.5	79	27.7	1	5	248	0.00	29.854 
15:35	33.7	33.7	33.7	79	27.9	2	6	248	0.00	29.853 
15:40	33.5	33.5	33.5	79	27.7	2	5	248	0.00	29.848 
15:45	33.7	33.7	33.7	79	27.9	1	5	248	0.00	29.845 
15:50	33.5	33.5	33.5	79	27.7	2	5	248	0.00	29.841 
15:55	33.5	33.5	33.5	79	27.7	1	5	248	0.00	29.841 
16:00	33.5	33.5	33.5	80	28.0	1	4	248	0.00	29.839 
16:05	33.5	33.5	33.5	80	28.0	1	3	248	0.00	29.840 
16:10	33.5	33.5	33.5	80	28.0	0	3	270	0.00	29.840 
16:15	33.4	33.4	33.4	80	27.9	1	4	248	0.00	29.836 
16:20	33.4	33.4	33.4	80	27.9	1	3	248	0.00	29.837 
16:25	33.4	33.4	33.4	80	27.9	1	4	248	0.00	29.836 
16:30	33.5	33.5	33.5	80	28.0	0	3	248	0.00	29.836 
16:35	33.5	33.5	33.5	80	28.0	0	1	248	0.00	29.830 
16:40	33.7	33.7	33.7	80	28.2	0	1	248	0.00	29.823 
16:45	33.7	33.7	33.7	80	28.2	0	1	248	0.00	29.822 
16:50	33.7	33.7	33.7	80	28.2	0	1	248	0.00	29.822 
16:55	33.8	33.8	33.8	80	28.3	0	1	248	0.00	29.823 
17:00	33.8	33.8	33.8	80	28.3	0	1	248	0.00	29.821 
17:05	33.8	33.8	33.8	80	28.3	0	1	248	0.00	29.816 
17:10	33.8	33.8	33.8	80	28.3	0	1	248	0.00	29.816 
17:15	33.7	33.7	33.7	80	28.2	0	1	248	0.00	29.823 
17:20	33.7	33.7	33.7	80	28.2	0	1	225	0.00	29.824 
17:25	33.5	33.5	33.5	80	28.0	0	2	225	0.00	29.826 
17:30	33.4	33.4	33.4	81	28.2	1	3	135	0.00	29.816 
17:35	33.2	33.2	33.2	81	28.0	0	2	90	0.00	29.818 
17:40	33.2	33.2	33.2	81	28.0	0	1	90	0.00	29.818 
17:45	33.1	33.1	33.1	82	28.2	1	3	112	0.00	29.814 
17:50	33.1	33.1	33.1	82	28.2	1	2	112	0.00	29.809 
17:55	32.9	32.9	32.9	82	28.0	0	1	112	0.00	29.817 
18:00	32.9	32.9	32.9	82	28.0	0	2	135	0.00	29.819 
18:05	32.8	32.8	32.8	83	28.2	1	3	112	0.00	29.817 
18:10	32.8	32.8	32.8	83	28.2	1	3	112	0.00	29.809 
18:15	32.8	32.8	32.8	83	28.2	1	2	112	0.00	29.809 
18:20	32.7	32.7	32.7	84	28.4	1	3	135	0.00	29.799 
18:25	32.5	32.5	32.5	84	28.2	1	4	112	0.00	29.802 
18:30	32.5	32.5	32.5	84	28.2	1	4	112	0.00	29.805 
18:35	32.4	32.4	32.4	85	28.4	1	3	45	0.00	29.810 
18:40	32.4	32.4	32.4	85	28.4	1	3	135	0.00	29.810 
18:45	32.4	32.4	32.4	85	28.4	1	4	112	0.00	29.800 
18:50	32.4	32.4	32.4	85	28.4	0	1	112	0.00	29.804 
18:55	32.4	32.4	32.4	85	28.4	0	1	112	0.00	29.807 
19:00	32.4	32.4	32.4	85	28.4	0	1	112	0.00	29.818 
19:05	32.2	32.2	32.2	86	28.5	0	2	112	0.00	29.812 
19:10	32.2	32.2	32.2	86	28.5	0	2	90	0.00	29.807 
19:15	32.2	32.2	32.2	86	28.5	0	1	90	0.00	29.810 
19:20	32.2	32.2	32.2	86	28.5	0	1	90	0.00	29.812 
19:25	32.2	32.2	32.2	86	28.5	0	1	90	0.00	29.809 
19:30	32.2	32.2	32.2	86	28.5	0	1	90	0.00	29.810 
19:35	32.2	32.2	32.2	86	28.5	0	1	90	0.00	29.811 
19:40	32.2	32.2	32.2	86	28.5	0	2	90	0.00	29.809 
19:45	32.2	32.2	32.2	86	28.5	0	1	90	0.00	29.809 
19:50	32.4	32.4	32.4	86	28.7	0	1	90	0.00	29.806 
19:55	32.2	32.2	32.2	87	28.8	0	2	90	0.00	29.796 
20:00	32.2	32.2	32.2	87	28.8	0	3	90	0.00	29.793 
20:05	32.2	32.2	32.2	87	28.8	1	2	90	0.00	29.793 
20:10	32.2	32.2	32.2	88	29.1	1	3	90	0.00	29.779 
20:15	32.1	32.1	32.1	89	29.2	1	4	90	0.00	29.780 
20:20	31.9	31.9	31.9	89	29.0	1	3	90	0.00	29.783 
20:25	31.9	31.9	31.9	90	29.3	1	3	90	0.00	29.784 
20:30	31.9	31.9	31.9	90	29.3	0	2	90	0.00	29.782 
20:35	31.8	31.8	31.8	91	29.5	0	1	90	0.00	29.791 
20:40	31.8	31.8	31.8	91	29.5	0	1	90	0.00	29.793 
20:45	31.8	31.8	31.8	91	29.5	0	2	90	0.00	29.780 
20:50	31.8	31.8	31.8	91	29.5	0	1	90	0.00	29.778 
20:55	31.8	31.8	31.8	92	29.7	0	2	90	0.00	29.777 
21:00	31.6	31.6	31.6	92	29.5	0	1	90	0.00	29.777 
21:05	31.6	31.6	31.6	92	29.5	0	2	90	0.00	29.770 
21:10	31.6	31.6	31.6	93	29.8	0	2	90	0.00	29.765 
21:15	31.5	31.5	31.5	93	29.7	0	2	90	0.00	29.766 
21:20	31.5	31.5	31.5	93	29.7	0	1	90	0.00	29.776 
21:25	31.5	31.5	31.5	93	29.7	1	3	90	0.00	29.772 
21:30	31.5	31.5	31.5	93	29.7	0	2	90	0.00	29.773 
21:35	31.5	31.5	31.5	94	30.0	1	2	90	0.00	29.774 
21:40	31.5	31.5	31.5	94	30.0	0	2	90	0.00	29.769 
21:45	31.5	31.5	31.5	94	30.0	0	1	90	0.00	29.767 
21:50	31.5	31.5	31.5	94	30.0	0	1	90	0.00	29.764 
21:55	31.5	31.5	31.5	94	30.0	0	0	---	0.00	29.761 
22:00	31.5	31.5	31.5	94	30.0	0	0	---	0.00	29.756 
22:05	31.5	31.5	31.5	94	30.0	0	0	---	0.00	29.760 
22:10	31.5	31.5	31.5	94	30.0	0	0	---	0.00	29.754 
22:15	31.5	31.5	31.5	94	30.0	0	0	---	0.00	29.757 
22:20	31.6	31.6	31.6	94	30.1	0	0	---	0.00	29.759 
22:25	31.6	31.6	31.6	95	30.3	0	0	---	0.00	29.761 
22:30	31.6	31.6	31.6	95	30.3	0	0	---	0.00	29.763 
22:35	31.6	31.6	31.6	95	30.3	0	0	---	0.00	29.763 
22:40	31.8	31.8	31.8	95	30.5	0	0	---	0.00	29.762 
22:45	31.8	31.8	31.8	95	30.5	0	0	---	0.00	29.761 
22:50	31.8	31.8	31.8	95	30.5	0	0	---	0.00	29.761 
22:55	31.8	31.8	31.8	95	30.5	0	0	---	0.00	29.757 
23:00	31.8	31.8	31.8	95	30.5	0	0	---	0.00	29.750 
23:05	31.9	31.9	31.9	95	30.6	0	0	---	0.00	29.744 
23:10	31.9	31.9	31.9	95	30.6	0	0	---	0.00	29.740 
23:15	31.9	31.9	31.9	95	30.6	0	0	---	0.00	29.731 
23:20	31.9	31.9	31.9	95	30.6	0	0	---	0.00	29.726 
23:25	31.9	31.9	31.9	95	30.6	0	0	---	0.00	29.730 
23:30	31.9	31.9	31.9	95	30.6	0	0	---	0.00	29.721 
23:35	31.9	31.9	31.9	95	30.6	0	0	---	0.00	29.721 
23:40	31.9	31.9	31.9	95	30.6	0	0	---	0.00	29.713 
23:45	31.9	31.9	31.9	95	30.6	0	0	---	0.00	29.706 
23:50	31.9	31.9	31.9	95	30.6	0	0	---	0.00	29.711 
23:55	31.9	31.9	31.9	96	30.9	0	0	---	0.00	29.702 

CoCoRaHS
IN-AL-39
A2 Web Hosting
Creative Commons License
GoDaddy
Look for:

loaded 2017-12-13 16:05:14 • last modified 2010-11-18 10:43:29
Privacy PolicyDisclaimer
• wx.awcolley.com is powered by PmWiki v.2002016 •
• all content (unless otherwise noted) © 2017 A W Colley